Latest Weather Observations for Kalgoorlie-Boulder

IDW60801

Issued at 4:14 pm WST Wednesday 4 March 2015 (issued every 30 minutes, with the page automatically refreshed every 10 minutes)

About weather observations | Map of weather stations | Latest weather observations for WA | Other Formats
Station Details ID: 012038 Name: KALGOORLIE-BOULDER AIRPORT Lat: -30.78 Lon: 121.45 Height: 365.3 m
Data from the previous 72 hours. | See also: Recent months at Kalgoorlie-Boulder
Date/Time
WST
Temp
°C
App
Temp
°C
Dew
Point
Rel
Hum
%
Delta-T
°C
Wind Press
QNH
hPa
Press
MSL
hPa
Rain
since 9 am
mm
Dir
 
Spd
km/h
Gust
km/h
Spd
kts
Gust
kts
04/04:00pm 22.0 16.7 8.3 41 7.3 ESE 26 33 14 18 1023.0 - 0.0
04/03:30pm 21.7 16.8 8.6 43 7.0 E 24 32 13 17 1022.7 - 0.0
04/03:00pm 21.9 16.7 8.9 43 7.0 E 26 35 14 19 1023.0 1021.4 0.0
04/02:00pm 21.7 18.2 10.1 47 6.4 E 19 33 10 18 1023.6 - 0.0
04/01:00pm 21.0 17.3 10.0 49 6.0 ENE 20 26 11 14 1023.7 - 0.0
04/12:30pm 20.9 17.2 10.1 50 5.9 E 20 24 11 13 1024.0 - 0.0
04/12:00pm 20.3 16.5 9.8 51 5.7 ESE 20 26 11 14 1024.2 1022.5 0.0
04/11:30am 20.1 16.6 10.2 53 5.4 E 19 22 10 12 1024.2 - 0.0
04/11:00am 19.1 15.1 10.3 56 4.8 E 22 30 12 16 1024.2 - 0.0
04/10:30am 19.3 16.3 10.7 57 4.7 E 17 20 9 11 1024.8 - 0.0
04/10:00am 18.6 15.3 11.0 61 4.2 E 19 26 10 14 1024.7 - 0.0
04/09:30am 18.3 15.4 11.0 62 4.0 E 17 26 9 14 1025.0 - 0.0
04/09:00am 18.0 15.2 11.3 65 3.7 ESE 17 24 9 13 1024.8 1023.2 0.0
04/08:30am 17.7 14.5 11.1 65 3.6 ESE 19 24 10 13 1024.6 - 0.0
04/08:00am 17.3 14.3 10.7 65 3.6 ESE 17 22 9 12 1024.4 - 0.0
04/07:30am 17.1 13.5 10.4 64 3.6 E 20 24 11 13 1024.1 - 0.0
04/07:00am 17.0 13.5 10.1 64 3.7 ESE 19 26 10 14 1023.8 - 0.0
04/06:30am 16.9 14.2 10.2 64 3.6 ESE 15 19 8 10 1023.7 - 0.0
04/05:30am 17.0 14.2 10.1 64 3.7 E 15 20 8 11 1022.2 - 0.0
04/05:00am 17.2 13.4 9.7 61 4.0 ESE 20 28 11 15 1021.7 - 0.0
04/04:30am 17.6 13.5 10.0 61 4.1 ESE 22 30 12 16 1021.5 - 0.0
04/04:00am 17.8 14.2 9.8 59 4.3 E 19 26 10 14 1020.8 - 0.0
04/03:30am 18.3 14.4 9.5 56 4.7 E 20 28 11 15 1020.7 - 0.0
04/03:00am 18.7 15.1 10.0 57 4.7 ENE 19 28 10 15 1021.0 1019.3 0.0
04/02:30am 18.9 15.7 9.8 55 4.9 E 17 24 9 13 1020.7 - 0.0
04/02:00am 19.3 15.5 9.2 52 5.4 E 19 24 10 13 1020.6 - 0.0
04/01:30am 19.7 15.7 9.0 50 5.7 E 20 32 11 17 1020.3 - 0.0
04/01:00am 20.1 15.7 9.1 49 5.9 E 22 33 12 18 1020.9 - 0.0
04/12:30am 20.5 16.7 9.2 48 6.1 E 19 24 10 13 1021.0 - 0.0
04/12:00am 20.8 17.0 9.1 47 6.3 E 19 26 10 14 1020.9 1019.2 0.0
 
Date/Time
WST
Temp
°C
App
Temp
°C
Dew
Point
Rel
Hum
%
Delta-T
°C
Wind Press
QNH
hPa
Press
MSL
hPa
Rain
since 9 am
mm
Dir
 
Spd
km/h
Gust
km/h
Spd
kts
Gust
kts
03/11:30pm 21.1 17.1 9.0 46 6.5 E 20 28 11 15 1020.9 - 0.0
03/11:00pm 21.6 17.6 9.0 44 6.8 E 20 32 11 17 1020.9 - 0.0
03/10:30pm 21.9 17.9 8.9 43 7.0 E 20 32 11 17 1020.8 - 0.0
03/10:00pm 22.3 18.3 8.3 40 7.5 ENE 19 26 10 14 1021.0 - 0.0
03/09:30pm 22.7 18.9 7.6 38 8.0 E 17 22 9 12 1020.9 - 0.0
03/09:00pm 23.0 19.2 7.5 37 8.2 E 17 22 9 12 1020.8 1019.1 0.0
03/08:30pm 23.3 19.8 7.4 36 8.4 E 15 20 8 11 1020.5 - 0.0
03/08:00pm 23.7 19.8 7.0 34 8.8 ESE 17 24 9 13 1020.0 - 0.0
03/07:30pm 24.1 19.6 6.8 33 9.1 ESE 20 24 11 13 1019.8 - 0.0
03/07:00pm 24.5 19.0 6.1 30 9.6 ESE 24 32 13 17 1019.2 - 0.0
03/06:30pm 25.0 19.4 5.5 28 10.1 ESE 24 32 13 17 1018.9 - 0.0
03/06:00pm 25.6 19.6 5.3 27 10.5 ESE 26 33 14 18 1018.8 1017.1 0.0
03/05:30pm 26.3 20.1 4.4 24 11.2 ESE 26 37 14 20 1018.5 - 0.0
03/05:00pm 26.5 21.7 5.7 26 10.9 E 20 32 11 17 1018.4 - 0.0
03/04:30pm 27.0 21.5 5.7 25 11.2 E 24 33 13 18 1018.4 - 0.0
03/04:00pm 26.7 20.8 5.7 26 11.0 ESE 26 35 14 19 1018.4 - 0.0
03/03:30pm 26.8 21.8 6.5 27 10.8 E 22 35 12 19 1018.5 - 0.0
03/03:00pm 26.4 21.8 6.7 28 10.5 E 20 33 11 18 1018.6 1016.9 0.0
03/02:30pm 26.7 22.8 7.2 29 10.5 ENE 17 26 9 14 1018.9 - 0.0
03/02:00pm 26.2 21.2 6.6 28 10.4 E 22 35 12 19 1019.4 - 0.0
03/01:30pm 26.0 21.3 7.7 31 9.9 ENE 22 33 12 18 1019.6 - 0.0
03/01:00pm 24.9 20.4 8.6 35 8.9 ESE 22 35 12 19 1020.0 - 0.0
03/12:30pm 24.7 19.9 8.8 36 8.7 ESE 24 32 13 17 1020.5 - 0.0
03/12:00pm 24.4 20.0 8.8 37 8.5 E 22 37 12 20 1020.7 1019.0 0.0
03/11:30am 23.6 19.3 9.2 40 7.9 E 22 39 12 21 1020.9 - 0.0
03/11:00am 22.9 17.8 9.1 41 7.5 ESE 26 39 14 21 1021.1 - 0.0
03/10:30am 22.9 18.1 8.9 40 7.6 ESE 24 35 13 19 1021.2 - 0.0
03/10:00am 21.9 17.2 9.2 44 6.9 ESE 24 35 13 19 1021.1 - 0.0
03/09:30am 22.1 18.0 10.2 46 6.6 ESE 22 32 12 17 1021.1 - 0.0
03/09:00am 19.9 14.7 10.2 53 5.3 ESE 28 37 15 20 1021.1 1019.4 0.0
03/08:30am 18.9 14.4 11.3 61 4.2 E 26 32 14 17 1021.1 - 0.0
03/08:00am 18.7 13.5 11.5 63 4.0 SE 30 39 16 21 1020.9 - 0.0
03/07:30am 17.7 13.1 12.4 71 3.0 SE 28 37 15 20 1020.7 - 0.0
03/07:00am 17.3 13.8 12.3 72 2.8 SE 22 35 12 19 1020.1 - 0.0
03/06:30am 17.1 13.6 12.1 72 2.8 SE 22 33 12 18 1019.8 - 0.0
03/06:00am 16.9 12.6 11.9 72 2.8 SE 26 33 14 18 1019.6 1017.9 0.0
03/05:30am 17.0 13.4 11.8 71 2.9 SE 22 28 12 15 1019.2 - 0.0
03/05:00am 17.0 13.8 12.0 72 2.8 ESE 20 26 11 14 1019.2 - 0.0
03/04:30am 17.4 13.8 12.0 70 3.0 SE 22 32 12 17 1019.0 - 0.0
03/04:00am 18.3 14.5 12.5 69 3.3 ESE 24 30 13 16 1019.0 - 0.0
03/03:30am 19.0 17.3 13.7 71 3.1 E 15 20 8 11 1018.7 - 0.0
03/03:00am 19.2 17.1 13.5 69 3.3 E 17 20 9 11 1018.3 1016.6 0.0
03/02:30am 19.5 17.3 13.3 67 3.6 ENE 17 22 9 12 1018.6 - 0.0
03/02:00am 19.8 17.5 13.0 65 3.9 ENE 17 24 9 13 1018.5 - 0.0
03/01:30am 20.3 18.3 12.6 61 4.4 ENE 15 20 8 11 1018.4 - 0.0
03/01:00am 20.5 18.8 12.5 60 4.6 E 13 22 7 12 1018.2 - 0.0
03/12:30am 20.6 19.7 12.6 60 4.6 E 9 15 5 8 1018.1 - 0.0
03/12:00am 20.8 19.1 12.4 58 4.8 E 13 19 7 10 1017.9 1016.2 0.0
 
Date/Time
WST
Temp
°C
App
Temp
°C
Dew
Point
Rel
Hum
%
Delta-T
°C
Wind Press
QNH
hPa
Press
MSL
hPa
Rain
since 9 am
mm
Dir
 
Spd
km/h
Gust
km/h
Spd
kts
Gust
kts
02/11:30pm 20.6 18.9 12.4 59 4.7 ENE 13 20 7 11 1017.7 - 0.0
02/11:00pm 20.6 19.2 12.2 58 4.8 E 11 17 6 9 1017.6 - 0.0
02/10:30pm 21.1 18.8 11.9 55 5.2 E 15 20 8 11 1017.2 - 0.0
02/10:00pm 21.3 18.8 12.2 56 5.2 E 17 22 9 12 1017.3 - 0.0
02/09:30pm 21.5 19.2 11.8 54 5.5 E 15 22 8 12 1017.3 - 0.0
02/09:00pm 21.7 19.0 11.6 52 5.7 E 17 22 9 12 1017.3 1015.6 0.0
02/08:30pm 22.0 19.3 11.6 51 5.9 E 17 24 9 13 1016.9 - 0.0
02/08:00pm 22.0 19.4 12.0 53 5.7 E 17 22 9 12 1016.3 - 0.0
02/07:30pm 22.3 19.4 12.4 53 5.7 ENE 19 28 10 15 1016.0 - 0.0
02/07:00pm 22.5 20.5 12.7 54 5.7 ENE 15 20 8 11 1015.6 - 0.0
02/06:30pm 22.7 20.3 12.5 52 5.9 E 17 24 9 13 1015.0 - 0.0
02/06:00pm 22.9 20.4 12.3 51 6.1 E 17 26 9 14 1014.8 1013.0 0.0
02/05:30pm 22.9 20.1 12.6 52 6.0 E 19 28 10 15 1014.3 - 0.0
02/05:00pm 23.4 20.8 12.1 49 6.5 E 17 22 9 12 1014.0 - 0.0
02/04:30pm 23.6 20.6 12.0 48 6.7 ENE 19 24 10 13 1013.7 - 0.0
02/04:00pm 23.6 20.7 12.2 48 6.6 E 19 24 10 13 1013.6 - 0.0
02/03:30pm 23.3 20.2 12.2 49 6.4 ESE 20 28 11 15 1013.7 - 0.0
02/03:00pm 22.9 21.1 13.4 55 5.6 ENE 15 20 8 11 1013.8 1012.1 0.0
02/02:30pm 22.6 20.8 13.4 56 5.4 E 15 22 8 12 1013.9 - 0.0
02/02:00pm 22.6 20.1 13.4 56 5.4 ENE 19 26 10 14 1014.0 - 0.0
02/01:30pm 22.0 19.9 13.7 59 4.9 E 17 22 9 12 1014.1 - 0.0
02/01:00pm 21.8 19.4 13.8 60 4.7 E 19 28 10 15 1014.1 - 0.0
02/12:30pm 21.5 18.9 13.9 62 4.5 ESE 20 26 11 14 1014.2 - 0.0
02/12:00pm 20.9 18.0 13.9 64 4.1 ESE 22 28 12 15 1014.5 1012.8 0.0
02/11:30am 20.5 17.6 14.0 66 3.8 ESE 22 30 12 16 1014.5 - 0.0
02/11:00am 20.5 18.0 14.2 67 3.7 E 20 30 11 16 1014.4 - 0.0
02/10:30am 20.0 17.1 14.0 68 3.5 ESE 22 24 12 13 1014.7 - 0.0
02/10:00am 19.6 16.7 14.1 70 3.2 E 22 30 12 16 1014.8 - 0.0
02/09:30am 20.4 16.6 13.7 65 3.9 ESE 26 33 14 18 1014.5 - 0.0
02/09:00am 19.9 16.8 13.5 66 3.7 SE 22 28 12 15 1014.3 1012.6 0.6
02/08:30am 19.5 16.7 13.3 67 3.6 ESE 20 28 11 15 1014.2 - 0.4
02/08:00am 17.9 15.0 13.0 73 2.8 SE 20 24 11 13 1014.4 - 0.4
02/07:30am 17.5 14.7 12.7 73 2.7 SE 19 28 10 15 1014.2 - 0.4
02/07:00am 17.3 14.7 13.1 76 2.4 SE 19 24 10 13 1013.7 - 0.4
02/06:30am 17.2 14.5 13.4 78 2.2 ESE 20 24 11 13 1013.3 - 0.4
02/06:00am 17.1 15.3 13.4 79 2.1 SE 15 20 8 11 1013.3 1011.6 0.4
02/05:30am 17.0 15.2 13.3 79 2.1 SE 15 20 8 11 1013.0 - 0.4
02/05:00am 17.1 15.5 13.8 81 1.9 ESE 15 20 8 11 1012.8 - 0.4
02/04:30am 17.2 16.0 13.9 81 1.9 ESE 13 19 7 10 1013.1 - 0.4
02/04:00am 17.2 16.4 14.1 82 1.8 ESE 11 15 6 8 1013.0 - 0.4
02/03:30am 17.1 16.4 14.2 83 1.7 NE 11 22 6 12 1012.7 - 0.4
02/03:00am 17.1 15.5 14.0 82 1.8 ENE 15 22 8 12 1011.8 1010.0 0.4
02/02:30am 17.1 16.7 14.2 83 1.7 SE 9 15 5 8 1012.2 - 0.4
02/02:16am 17.2 15.6 13.9 81 1.9 ENE 15 20 8 11 1012.0 - 0.4
02/02:00am 17.2 15.9 13.7 80 2.0 ENE 13 20 7 11 1012.4 - 0.4
02/01:30am 17.3 15.3 14.0 81 1.9 NE 17 22 9 12 1012.4 - 0.4
02/01:02am 17.3 15.3 13.8 80 2.0 NE 17 26 9 14 1012.5 - 0.4
02/01:00am 17.3 15.7 13.8 80 2.0 NE 15 22 8 12 1012.5 - 0.4
02/12:30am 17.5 15.2 13.1 75 2.5 ENE 17 24 9 13 1012.0 - 0.4
02/12:00am 17.5 15.7 13.3 76 2.4 ENE 15 20 8 11 1012.2 1010.4 0.4
 
Date/Time
WST
Temp
°C
App
Temp
°C
Dew
Point
Rel
Hum
%
Delta-T
°C
Wind Press
QNH
hPa
Press
MSL
hPa
Rain
since 9 am
mm
Dir
 
Spd
km/h
Gust
km/h
Spd
kts
Gust
kts
01/11:30pm 17.6 15.3 14.2 80 2.0 NE 19 30 10 16 1012.2 - 0.4
01/11:00pm 17.7 15.3 13.7 77 2.3 NE 19 24 10 13 1012.1 - 0.4
01/10:30pm 17.7 16.9 14.1 79 2.1 NE 11 15 6 8 1013.4 - 0.4
01/10:00pm 17.8 18.9 13.6 76 2.4 CALM 0 0 0 0 1014.4 - 0.4
01/09:30pm 17.9 19.1 13.9 77 2.3 CALM 0 0 0 0 1014.9 - 0.4
01/09:00pm 17.9 18.8 14.1 78 2.2 WSW 2 6 1 3 1014.8 1013.0 0.4
01/08:30pm 17.9 17.5 14.1 78 2.2 WSW 9 11 5 6 1014.5 - 0.4
01/08:00pm 17.9 17.9 14.3 79 2.1 WSW 7 9 4 5 1014.2 - 0.4
01/07:30pm 17.9 18.1 14.1 78 2.2 W 6 7 3 4 1013.8 - 0.4
01/07:00pm 17.8 17.7 14.0 78 2.2 N 7 9 4 5 1013.0 - 0.4
01/06:30pm 17.6 16.1 14.3 81 1.9 NE 15 20 8 11 1012.3 - 0.4
01/06:00pm 17.7 17.1 14.6 82 1.8 NE 11 17 6 9 1012.4 1010.6 0.4
01/05:30pm 17.8 16.6 15.1 84 1.6 NE 15 20 8 11 1012.0 - 0.4
01/05:00pm 17.5 16.3 15.1 86 1.4 NE 15 20 8 11 1012.1 - 0.4
01/04:30pm 17.4 15.9 15.4 88 1.2 NNE 17 24 9 13 1012.0 - 0.4
01/04:19pm 17.5 15.6 15.3 87 1.3 NE 19 26 10 14 1012.1 - 0.4
01/04:04pm 17.4 15.9 15.4 88 1.2 NNE 17 24 9 13 1012.1 - 0.4

Other Formats:

Comma delimited format used in spreadsheet applications
http://www.bom.gov.au/fwo/IDW60801/IDW60801.94637.axf

JavaScript Object Notation format (JSON) in row-major order
http://www.bom.gov.au/fwo/IDW60801/IDW60801.94637.json